Time;durP1;ratioP1;P1;durP2;ratioP2;P2;SDS_P1;SDS_P2;PMS_P1;PMS_P2;Temp;Humidity;BMP_temperature;BMP_pressure;BME280_temperature;BME280_humidity;BME280_pressure;Samples;Min_cycle;Max_cycle;Signal;HPM_P1;HPM_P2
2024/04/09 00:00:09;;;;;;;;;;;17.20;99.90;;;;;;5446490;26;19935;-77
2024/04/09 00:02:35;;;;;;;;;;;17.20;99.90;;;;;;5388449;26;19930;-77
2024/04/09 00:05:00;;;;;;;;;;;17.10;99.90;;;;;;5428407;26;19935;-76
2024/04/09 00:07:26;;;;;;;;;;;17.10;99.90;;;;;;5357385;26;19930;-77
2024/04/09 00:09:52;;;;;;;;;;;17.10;99.90;;;;;;5419283;26;19939;-76
2024/04/09 00:12:21;;;;;;;;;;;17.00;99.90;;;;;;5452068;26;19986;-77
2024/04/09 00:14:49;;;;;;;;;;;17.00;99.90;;;;;;5399959;26;19937;-77
2024/04/09 00:17:19;;;;;;;;;;;16.90;99.90;;;;;;5382181;26;19929;-77
2024/04/09 00:19:48;;;;;;;;;;;16.90;99.90;;;;;;5412117;26;19998;-77
2024/04/09 00:22:14;;;;;;;;;;;17.00;99.90;;;;;;5435863;26;20036;-77
2024/04/09 00:24:40;;;;;;;;;;;16.90;99.90;;;;;;5385733;26;20352;-77
2024/04/09 00:27:06;;;;;;;;;;;16.90;99.90;;;;;;5386639;26;19937;-76
2024/04/09 00:29:34;;;;;;;;;;;16.90;99.90;;;;;;5424399;26;19928;-77
2024/04/09 00:32:00;;;;;;;;;;;16.80;99.90;;;;;;5398621;26;19997;-77
2024/04/09 00:34:26;;;;;;;;;;;16.80;99.90;;;;;;5392730;26;19938;-76
2024/04/09 00:36:52;;;;;;;;;;;16.80;99.90;;;;;;5385634;26;19953;-76
2024/04/09 00:39:23;;;;;;;;;;;16.80;99.90;;;;;;5381061;26;19937;-76
2024/04/09 00:41:48;;;;;;;;;;;16.80;99.90;;;;;;5392977;26;20257;-77
2024/04/09 00:44:15;;;;;;;;;;;16.80;99.90;;;;;;5380240;26;19937;-77
2024/04/09 00:46:42;;;;;;;;;;;16.80;99.90;;;;;;5383183;26;19929;-76
2024/04/09 00:49:08;;;;;;;;;;;16.80;99.90;;;;;;5365548;26;19993;-77
2024/04/09 00:51:34;;;;;;;;;;;16.90;99.90;;;;;;5403281;26;19936;-77
2024/04/09 00:54:00;;;;;;;;;;;16.90;99.90;;;;;;5357359;26;19929;-77
2024/04/09 00:56:26;;;;;;;;;;;16.90;99.90;;;;;;5442565;26;19935;-77
2024/04/09 00:58:51;;;;;;;;;;;16.90;99.90;;;;;;5411526;26;19929;-77
2024/04/09 01:01:17;;;;;;;;;;;16.80;99.90;;;;;;5385790;26;19929;-76
2024/04/09 01:03:43;;;;;;;;;;;16.90;99.90;;;;;;5404839;26;20043;-76
2024/04/09 01:06:09;;;;;;;;;;;16.90;99.90;;;;;;5410978;26;19929;-77
2024/04/09 01:08:35;;;;;;;;;;;16.90;99.90;;;;;;5355534;26;19936;-77
2024/04/09 01:11:01;;;;;;;;;;;17.00;99.90;;;;;;5405642;26;19930;-77
2024/04/09 01:13:26;;;;;;;;;;;17.00;99.90;;;;;;5351148;26;19930;-77
2024/04/09 01:15:52;;;;;;;;;;;17.00;99.90;;;;;;5339057;26;20285;-77
2024/04/09 01:18:18;;;;;;;;;;;16.90;99.90;;;;;;5382933;26;20262;-77
2024/04/09 01:20:43;;;;;;;;;;;17.00;99.90;;;;;;5378530;26;19936;-77
2024/04/09 01:23:12;;;;;;;;;;;16.90;99.90;;;;;;5395260;26;20329;-77
2024/04/09 01:25:38;;;;;;;;;;;17.00;99.90;;;;;;5409377;26;19936;-77
2024/04/09 01:28:04;;;;;;;;;;;16.90;99.90;;;;;;5393150;26;19929;-76
2024/04/09 01:30:29;;;;;;;;;;;16.90;99.90;;;;;;5408655;26;19933;-76
2024/04/09 01:32:55;;;;;;;;;;;16.90;99.90;;;;;;5360879;26;19929;-77
2024/04/09 01:35:21;;;;;;;;;;;17.00;99.90;;;;;;5367085;26;19930;-76
2024/04/09 01:37:48;;;;;;;;;;;17.00;99.90;;;;;;5380269;26;19930;-77
2024/04/09 01:40:15;;;;;;;;;;;17.00;99.90;;;;;;5367036;26;20337;-77
2024/04/09 01:42:41;;;;;;;;;;;17.00;99.90;;;;;;5435024;26;19966;-79
2024/04/09 01:45:07;;;;;;;;;;;17.10;99.90;;;;;;5385565;26;19936;-77
2024/04/09 01:47:33;;;;;;;;;;;17.10;99.90;;;;;;5353436;26;19930;-78
2024/04/09 01:49:59;;;;;;;;;;;17.10;99.90;;;;;;5426596;26;19974;-77
2024/04/09 01:52:25;;;;;;;;;;;17.20;99.90;;;;;;5322964;26;19934;-78
2024/04/09 01:54:52;;;;;;;;;;;17.20;99.90;;;;;;5379367;26;20338;-77
2024/04/09 01:57:17;;;;;;;;;;;17.10;99.90;;;;;;5359069;26;19940;-78
2024/04/09 01:59:43;;;;;;;;;;;17.10;99.90;;;;;;5417578;26;19934;-78
2024/04/09 02:02:10;;;;;;;;;;;17.20;99.90;;;;;;5382019;26;19938;-77
2024/04/09 02:04:36;;;;;;;;;;;17.10;99.90;;;;;;5448043;26;19948;-78
2024/04/09 02:07:01;;;;;;;;;;;17.10;99.90;;;;;;5422165;26;19979;-77
2024/04/09 02:09:27;;;;;;;;;;;17.10;99.90;;;;;;5419211;26;19935;-78
2024/04/09 02:11:53;;;;;;;;;;;17.10;99.90;;;;;;5339121;26;19936;-79
2024/04/09 02:14:19;;;;;;;;;;;17.10;99.90;;;;;;5327048;26;19936;-77
2024/04/09 02:16:45;;;;;;;;;;;17.10;99.90;;;;;;5419363;26;19936;-78
2024/04/09 02:19:11;;;;;;;;;;;17.20;99.90;;;;;;5385512;26;19936;-78
2024/04/09 02:21:37;;;;;;;;;;;17.20;99.90;;;;;;5376441;26;19929;-78
2024/04/09 02:24:03;;;;;;;;;;;17.20;99.90;;;;;;5410780;26;20254;-76
2024/04/09 02:26:29;;;;;;;;;;;17.20;99.90;;;;;;5374923;26;19929;-76
2024/04/09 02:28:55;;;;;;;;;;;17.20;99.90;;;;;;5382905;26;19929;-77
2024/04/09 02:31:20;;;;;;;;;;;17.20;99.90;;;;;;5413993;26;20047;-77
2024/04/09 02:33:46;;;;;;;;;;;17.20;99.90;;;;;;5383292;26;19940;-78
2024/04/09 02:36:12;;;;;;;;;;;17.20;99.90;;;;;;5337306;26;20245;-77
2024/04/09 02:38:37;;;;;;;;;;;17.10;99.90;;;;;;5414575;26;19976;-78
2024/04/09 02:41:03;;;;;;;;;;;17.10;99.90;;;;;;5395998;26;20323;-78
2024/04/09 02:43:29;;;;;;;;;;;17.10;99.90;;;;;;5381078;26;19930;-76
2024/04/09 02:45:55;;;;;;;;;;;17.10;99.90;;;;;;5355300;26;19962;-78
2024/04/09 02:48:20;;;;;;;;;;;17.00;99.90;;;;;;5388152;26;19929;-77
2024/04/09 02:50:53;;;;;;;;;;;17.00;99.90;;;;;;5413008;26;20282;-78
2024/04/09 02:53:19;;;;;;;;;;;17.00;99.90;;;;;;5410054;26;19936;-78
2024/04/09 02:55:46;;;;;;;;;;;17.00;99.90;;;;;;5386724;26;20350;-78
2024/04/09 02:58:12;;;;;;;;;;;17.00;99.90;;;;;;5339461;26;19957;-78
2024/04/09 03:00:38;;;;;;;;;;;16.90;99.90;;;;;;5429628;26;19930;-77
2024/04/09 03:03:04;;;;;;;;;;;16.90;99.90;;;;;;5389114;26;19930;-78
2024/04/09 03:05:33;;;;;;;;;;;16.80;99.90;;;;;;5405172;26;19936;-77
2024/04/09 03:07:59;;;;;;;;;;;16.80;99.90;;;;;;5416613;26;19929;-77
2024/04/09 03:10:32;;;;;;;;;;;16.90;99.90;;;;;;5418238;26;20555;-76
2024/04/09 03:12:58;;;;;;;;;;;16.80;99.90;;;;;;5397289;26;19938;-76
2024/04/09 03:15:24;;;;;;;;;;;16.80;99.90;;;;;;5397619;26;19936;-77
2024/04/09 03:17:49;;;;;;;;;;;16.80;99.90;;;;;;5353789;26;19929;-76
2024/04/09 03:20:15;;;;;;;;;;;16.80;99.90;;;;;;5394016;26;19939;-77
2024/04/09 03:22:41;;;;;;;;;;;16.80;99.90;;;;;;5407839;26;20639;-76
2024/04/09 03:25:07;;;;;;;;;;;16.80;99.90;;;;;;5368866;26;19929;-77
2024/04/09 03:27:33;;;;;;;;;;;16.80;99.90;;;;;;5382962;26;20257;-78
2024/04/09 03:29:59;;;;;;;;;;;16.80;99.90;;;;;;5358784;26;19938;-77
2024/04/09 03:32:28;;;;;;;;;;;16.80;99.90;;;;;;5397678;26;20398;-77
2024/04/09 03:34:53;;;;;;;;;;;16.80;99.90;;;;;;5369880;26;19930;-76
2024/04/09 03:37:19;;;;;;;;;;;16.90;99.90;;;;;;5373582;26;19930;-76
2024/04/09 03:39:44;;;;;;;;;;;16.90;99.90;;;;;;5412333;26;20022;-78
2024/04/09 03:42:10;;;;;;;;;;;16.90;99.90;;;;;;5382691;26;19996;-76
2024/04/09 03:44:36;;;;;;;;;;;17.00;99.90;;;;;;5352245;26;19953;-77
2024/04/09 03:47:04;;;;;;;;;;;17.10;99.90;;;;;;5417112;26;19936;-76
2024/04/09 03:49:30;;;;;;;;;;;17.10;99.90;;;;;;5416454;26;19929;-76
2024/04/09 03:51:55;;;;;;;;;;;17.10;99.90;;;;;;5417679;26;19929;-76
2024/04/09 03:54:21;;;;;;;;;;;17.10;99.90;;;;;;5417127;26;19928;-78
2024/04/09 03:56:46;;;;;;;;;;;17.20;99.90;;;;;;5372161;26;19934;-78
2024/04/09 03:59:12;;;;;;;;;;;17.20;99.90;;;;;;5418492;26;19932;-78
2024/04/09 04:01:38;;;;;;;;;;;17.20;99.90;;;;;;5403448;26;19929;-80
2024/04/09 04:04:03;;;;;;;;;;;17.20;99.90;;;;;;5420695;26;19928;-78
2024/04/09 04:06:29;;;;;;;;;;;17.20;99.90;;;;;;5406876;26;20019;-78
2024/04/09 04:08:55;;;;;;;;;;;17.30;99.90;;;;;;5405351;26;19929;-78
2024/04/09 04:11:20;;;;;;;;;;;17.30;99.90;;;;;;5428415;26;19936;-78
2024/04/09 04:13:46;;;;;;;;;;;17.30;99.90;;;;;;5417321;26;20075;-77
2024/04/09 04:16:12;;;;;;;;;;;17.30;99.90;;;;;;5413707;26;19966;-77
2024/04/09 04:18:47;;;;;;;;;;;17.30;99.90;;;;;;5400060;26;19929;-78
2024/04/09 04:21:13;;;;;;;;;;;17.30;99.90;;;;;;5360920;26;20242;-77
2024/04/09 04:23:39;;;;;;;;;;;17.20;99.90;;;;;;5336762;26;19957;-78
2024/04/09 04:26:09;;;;;;;;;;;17.20;99.90;;;;;;5384373;26;20004;-78
2024/04/09 04:28:38;;;;;;;;;;;17.20;99.90;;;;;;5379080;26;19936;-78
2024/04/09 04:31:07;;;;;;;;;;;17.20;99.90;;;;;;5448102;26;20438;-78
2024/04/09 04:33:33;;;;;;;;;;;17.20;99.90;;;;;;5386996;26;19933;-78
2024/04/09 04:35:58;;;;;;;;;;;17.20;99.90;;;;;;5414054;26;19940;-78
2024/04/09 04:38:24;;;;;;;;;;;17.20;99.90;;;;;;5353955;26;19995;-78
2024/04/09 04:40:50;;;;;;;;;;;17.20;99.90;;;;;;5424049;26;19936;-77
2024/04/09 04:43:16;;;;;;;;;;;17.20;99.90;;;;;;5404620;26;19929;-79
2024/04/09 04:45:44;;;;;;;;;;;17.20;99.90;;;;;;5368454;26;19966;-78
2024/04/09 04:48:10;;;;;;;;;;;17.20;99.90;;;;;;5364284;26;20403;-78
2024/04/09 04:50:37;;;;;;;;;;;17.20;99.90;;;;;;5440992;26;19929;-77
2024/04/09 04:53:03;;;;;;;;;;;17.20;99.90;;;;;;5418959;26;19941;-78
2024/04/09 04:55:29;;;;;;;;;;;17.20;99.90;;;;;;5416806;26;19941;-78
2024/04/09 04:57:55;;;;;;;;;;;17.10;99.90;;;;;;5375202;26;19936;-77
2024/04/09 05:00:21;;;;;;;;;;;17.10;99.90;;;;;;5427250;26;19937;-79
2024/04/09 05:02:48;;;;;;;;;;;17.10;99.90;;;;;;5373993;26;20353;-78
2024/04/09 05:05:13;;;;;;;;;;;17.10;99.90;;;;;;5405810;26;19937;-78
2024/04/09 05:07:39;;;;;;;;;;;17.10;99.90;;;;;;5414840;26;20241;-78
2024/04/09 05:10:05;;;;;;;;;;;17.10;99.90;;;;;;5348054;26;19930;-76
2024/04/09 05:12:32;;;;;;;;;;;17.10;99.90;;;;;;5407779;26;19937;-77
2024/04/09 05:14:58;;;;;;;;;;;17.10;99.90;;;;;;5417164;26;20356;-77
2024/04/09 05:17:24;;;;;;;;;;;17.10;99.90;;;;;;5396213;26;19930;-77
2024/04/09 05:19:50;;;;;;;;;;;17.20;99.90;;;;;;5372580;26;19995;-78
2024/04/09 05:22:17;;;;;;;;;;;17.20;99.90;;;;;;5401571;26;19936;-77
2024/04/09 05:24:44;;;;;;;;;;;17.20;99.90;;;;;;5401398;26;19945;-78
2024/04/09 05:27:10;;;;;;;;;;;17.20;99.90;;;;;;5379265;26;20373;-76
2024/04/09 05:29:35;;;;;;;;;;;17.20;99.90;;;;;;5420603;26;19930;-76
2024/04/09 05:32:01;;;;;;;;;;;17.30;99.90;;;;;;5408245;26;20353;-78
2024/04/09 05:34:27;;;;;;;;;;;17.30;99.90;;;;;;5386202;26;19941;-77
2024/04/09 05:36:52;;;;;;;;;;;17.30;99.90;;;;;;5384800;26;19929;-77
2024/04/09 05:39:19;;;;;;;;;;;17.30;99.90;;;;;;5384342;26;19933;-77
2024/04/09 05:41:45;;;;;;;;;;;17.30;99.90;;;;;;5441108;26;19934;-77
2024/04/09 05:44:11;;;;;;;;;;;17.30;99.90;;;;;;5379605;26;19929;-76
2024/04/09 05:46:39;;;;;;;;;;;17.40;99.90;;;;;;5410199;26;19938;-76
2024/04/09 05:49:05;;;;;;;;;;;17.40;99.90;;;;;;5415223;26;19929;-77
2024/04/09 05:51:31;;;;;;;;;;;17.40;99.90;;;;;;5398882;26;19995;-76
2024/04/09 05:53:57;;;;;;;;;;;17.40;99.90;;;;;;5382728;26;19937;-76
2024/04/09 05:56:22;;;;;;;;;;;17.40;99.90;;;;;;5381042;26;19929;-76
2024/04/09 05:58:48;;;;;;;;;;;17.40;99.90;;;;;;5392549;26;19928;-76
2024/04/09 06:01:14;;;;;;;;;;;17.50;99.90;;;;;;5386493;26;19995;-77
2024/04/09 06:03:40;;;;;;;;;;;17.50;99.90;;;;;;5414898;26;19937;-77
2024/04/09 06:06:06;;;;;;;;;;;17.50;99.90;;;;;;5414816;26;20418;-76
2024/04/09 06:08:31;;;;;;;;;;;17.50;99.90;;;;;;5402164;26;19976;-77
2024/04/09 06:10:57;;;;;;;;;;;17.50;99.90;;;;;;5392241;26;20345;-76
2024/04/09 06:13:23;;;;;;;;;;;17.50;99.90;;;;;;5386184;26;20613;-77
2024/04/09 06:15:48;;;;;;;;;;;17.50;99.90;;;;;;5406418;26;19937;-76
2024/04/09 06:18:14;;;;;;;;;;;17.50;99.90;;;;;;5385683;26;20364;-75
2024/04/09 06:20:40;;;;;;;;;;;17.60;99.90;;;;;;5402965;26;19928;-77
2024/04/09 06:23:06;;;;;;;;;;;17.60;99.90;;;;;;5406904;26;19979;-77
2024/04/09 06:25:31;;;;;;;;;;;17.60;99.90;;;;;;5397059;26;19929;-76
2024/04/09 06:27:58;;;;;;;;;;;17.70;99.90;;;;;;5403316;26;19936;-75
2024/04/09 06:30:23;;;;;;;;;;;17.70;99.90;;;;;;5408077;26;19961;-77
2024/04/09 06:32:49;;;;;;;;;;;17.80;99.90;;;;;;5409152;26;19936;-77
2024/04/09 06:35:15;;;;;;;;;;;17.80;99.90;;;;;;5363428;26;19934;-76
2024/04/09 06:37:40;;;;;;;;;;;17.90;99.90;;;;;;5393695;26;19929;-77
2024/04/09 06:40:06;;;;;;;;;;;17.90;99.90;;;;;;5380485;26;19936;-77
2024/04/09 06:42:32;;;;;;;;;;;18.00;99.90;;;;;;5413387;26;19957;-77
2024/04/09 06:45:01;;;;;;;;;;;18.00;99.90;;;;;;5407434;26;21558;-77
2024/04/09 06:47:27;;;;;;;;;;;18.20;99.90;;;;;;5384108;26;19932;-77
2024/04/09 06:49:53;;;;;;;;;;;18.40;99.90;;;;;;5377168;26;19930;-76
2024/04/09 06:52:19;;;;;;;;;;;18.60;99.90;;;;;;5378803;26;19929;-76
2024/04/09 06:54:44;;;;;;;;;;;18.60;99.90;;;;;;5392650;26;19937;-77
2024/04/09 06:57:10;;;;;;;;;;;18.70;99.90;;;;;;5330148;26;20226;-77
2024/04/09 06:59:36;;;;;;;;;;;18.70;99.90;;;;;;5391329;26;19941;-77
2024/04/09 07:02:01;;;;;;;;;;;18.80;99.90;;;;;;5407770;26;19940;-77
2024/04/09 07:04:27;;;;;;;;;;;18.80;99.90;;;;;;5388725;26;19930;-77
2024/04/09 07:06:54;;;;;;;;;;;18.80;99.90;;;;;;5393878;26;19933;-77
2024/04/09 07:09:19;;;;;;;;;;;18.80;99.90;;;;;;5452198;26;19929;-77
2024/04/09 07:11:45;;;;;;;;;;;18.90;99.90;;;;;;5449799;26;20311;-77
2024/04/09 07:14:14;;;;;;;;;;;18.90;99.90;;;;;;5388101;26;19929;-76
2024/04/09 07:16:41;;;;;;;;;;;18.90;99.90;;;;;;5385012;26;19929;-76
2024/04/09 07:19:07;;;;;;;;;;;19.00;99.90;;;;;;5384638;26;19929;-76
2024/04/09 07:21:32;;;;;;;;;;;19.00;99.90;;;;;;5398284;26;19935;-76
2024/04/09 07:23:58;;;;;;;;;;;19.00;99.90;;;;;;5371740;26;19961;-77
2024/04/09 07:26:24;;;;;;;;;;;19.00;99.90;;;;;;5378059;26;20413;-76
2024/04/09 07:28:51;;;;;;;;;;;19.10;99.90;;;;;;5334812;26;19940;-77
2024/04/09 07:31:17;;;;;;;;;;;19.10;99.90;;;;;;5413945;26;19940;-76
2024/04/09 07:33:42;;;;;;;;;;;19.10;99.90;;;;;;5351792;26;19929;-76
2024/04/09 07:36:08;;;;;;;;;;;19.00;99.90;;;;;;5416012;26;19929;-78
2024/04/09 07:38:34;;;;;;;;;;;19.00;99.90;;;;;;5448291;26;19939;-77
2024/04/09 07:40:59;;;;;;;;;;;19.00;99.90;;;;;;5363821;26;20713;-76
2024/04/09 07:43:26;;;;;;;;;;;19.00;99.90;;;;;;5348915;26;19929;-77
2024/04/09 07:45:52;;;;;;;;;;;19.00;99.90;;;;;;5382471;26;19935;-77
2024/04/09 07:48:18;;;;;;;;;;;18.90;99.90;;;;;;5350197;26;19936;-77
2024/04/09 07:50:45;;;;;;;;;;;18.90;99.90;;;;;;5361703;26;19953;-76
2024/04/09 07:53:11;;;;;;;;;;;18.90;99.90;;;;;;5383416;26;19940;-77
2024/04/09 07:55:37;;;;;;;;;;;18.90;99.90;;;;;;5421155;26;19995;-76
2024/04/09 07:58:03;;;;;;;;;;;18.80;99.90;;;;;;5382528;26;20258;-77
2024/04/09 08:00:29;;;;;;;;;;;18.80;99.90;;;;;;5391137;26;19995;-77
2024/04/09 08:02:55;;;;;;;;;;;18.80;99.90;;;;;;5406149;26;19929;-76
2024/04/09 08:05:22;;;;;;;;;;;18.70;99.90;;;;;;5386684;26;20238;-77
2024/04/09 08:07:48;;;;;;;;;;;18.70;99.90;;;;;;5401481;26;19957;-76
2024/04/09 08:10:18;;;;;;;;;;;18.70;99.90;;;;;;5639939;21;20026;-78
2024/04/09 08:12:51;;;;;;;;;;;18.70;99.90;;;;;;5375076;26;19929;-76
2024/04/09 08:15:20;;;;;;;;;;;18.70;99.90;;;;;;5411506;26;19929;-76
2024/04/09 08:17:48;;;;;;;;;;;18.70;99.90;;;;;;5406415;26;19976;-75
2024/04/09 08:20:15;;;;;;;;;;;18.70;99.90;;;;;;5378556;26;19937;-77
2024/04/09 08:22:42;;;;;;;;;;;18.70;99.90;;;;;;5409941;26;19937;-76
2024/04/09 08:25:07;;;;;;;;;;;18.70;99.90;;;;;;5413083;26;19963;-77
2024/04/09 08:27:36;;;;;;;;;;;18.70;99.90;;;;;;5411513;26;19945;-77
2024/04/09 08:30:17;;;;;;;;;;;18.60;99.90;;;;;;5380486;26;19953;-76
2024/04/09 08:32:43;;;;;;;;;;;18.60;99.90;;;;;;5413607;26;19933;-77
2024/04/09 08:35:13;;;;;;;;;;;18.60;99.90;;;;;;5411829;26;19972;-77
2024/04/09 08:37:44;;;;;;;;;;;18.60;99.90;;;;;;5395241;26;19940;-79
2024/04/09 08:40:32;;;;;;;;;;;18.60;99.90;;;;;;5409626;26;19921;-78
2024/04/09 08:43:38;;;;;;;;;;;18.40;99.90;;;;;;5390969;26;19981;-80
2024/04/09 08:46:05;;;;;;;;;;;18.50;99.90;;;;;;5423679;26;19937;-81
2024/04/09 08:48:38;;;;;;;;;;;18.50;99.90;;;;;;5440200;26;19929;-80
2024/04/09 08:56:33;;;;;;;;;;;18.30;99.90;;;;;;6110427;21;19961;-80
2024/04/09 08:59:04;;;;;;;;;;;18.30;99.90;;;;;;5373492;26;19940;-80
2024/04/09 09:01:30;;;;;;;;;;;18.30;99.90;;;;;;5411253;26;20003;-80
2024/04/09 09:03:56;;;;;;;;;;;18.30;99.90;;;;;;5412318;26;19928;-80
2024/04/09 09:06:22;;;;;;;;;;;18.30;99.90;;;;;;5379543;26;19929;-80
2024/04/09 09:08:51;;;;;;;;;;;18.30;99.90;;;;;;5385224;26;19932;-80
2024/04/09 09:11:21;;;;;;;;;;;18.30;99.90;;;;;;5405285;26;19929;-81
2024/04/09 09:13:47;;;;;;;;;;;18.30;99.90;;;;;;5441063;26;19925;-81
2024/04/09 09:16:12;;;;;;;;;;;18.30;99.90;;;;;;5352589;26;19925;-82
2024/04/09 09:18:38;;;;;;;;;;;18.30;99.90;;;;;;5349664;26;19929;-82
2024/04/09 09:21:11;;;;;;;;;;;18.30;99.90;;;;;;5374144;26;19936;-80
2024/04/09 09:23:38;;;;;;;;;;;18.30;99.90;;;;;;5410900;26;19948;-82
2024/04/09 09:26:06;;;;;;;;;;;18.40;99.90;;;;;;5397494;26;19936;-82
2024/04/09 09:28:34;;;;;;;;;;;18.50;99.90;;;;;;5438940;26;19921;-81
2024/04/09 09:31:00;;;;;;;;;;;18.50;99.90;;;;;;5342018;26;19940;-82
2024/04/09 09:33:29;;;;;;;;;;;18.50;99.90;;;;;;5427742;26;19927;-80
2024/04/09 09:35:55;;;;;;;;;;;18.50;99.90;;;;;;5354815;26;19936;-80
2024/04/09 09:38:22;;;;;;;;;;;18.50;99.90;;;;;;5361064;26;19930;-79
2024/04/09 09:40:51;;;;;;;;;;;18.40;99.90;;;;;;5354786;26;19937;-79
2024/04/09 09:43:20;;;;;;;;;;;18.30;99.90;;;;;;5349463;26;19929;-81
2024/04/09 09:45:47;;;;;;;;;;;18.40;99.90;;;;;;5381761;26;19932;-80
2024/04/09 09:48:27;;;;;;;;;;;18.40;99.90;;;;;;5409245;26;19929;-80
2024/04/09 09:50:54;;;;;;;;;;;18.30;99.90;;;;;;5355806;26;19994;-80
2024/04/09 09:53:20;;;;;;;;;;;18.30;99.90;;;;;;5360505;26;19929;-81
2024/04/09 09:55:47;;;;;;;;;;;18.30;99.90;;;;;;5337267;26;19936;-80
2024/04/09 09:58:14;;;;;;;;;;;18.20;99.90;;;;;;5323036;26;19924;-79
2024/04/09 10:00:40;;;;;;;;;;;18.10;99.90;;;;;;5431114;26;19936;-80
2024/04/09 10:03:06;;;;;;;;;;;18.10;99.90;;;;;;5346390;26;19947;-80
2024/04/09 10:05:32;;;;;;;;;;;18.10;99.90;;;;;;5380796;26;19954;-81
2024/04/09 10:08:00;;;;;;;;;;;18.30;99.90;;;;;;5400431;26;20270;-78
2024/04/09 10:10:32;;;;;;;;;;;18.20;99.90;;;;;;5370220;26;19929;-77
2024/04/09 10:13:09;;;;;;;;;;;18.20;99.90;;;;;;5384331;26;19935;-77
2024/04/09 10:15:35;;;;;;;;;;;18.10;99.90;;;;;;5403683;26;19933;-78
2024/04/09 10:18:04;;;;;;;;;;;18.10;99.90;;;;;;5352354;26;19956;-78
2024/04/09 10:20:31;;;;;;;;;;;18.20;99.90;;;;;;5337608;26;19942;-77
2024/04/09 10:23:02;;;;;;;;;;;18.20;99.90;;;;;;5368454;26;19929;-77
2024/04/09 10:25:35;;;;;;;;;;;18.10;99.90;;;;;;5321910;26;19979;-78
2024/04/09 10:28:02;;;;;;;;;;;18.10;99.90;;;;;;5384658;26;20356;-77
2024/04/09 10:30:29;;;;;;;;;;;18.20;99.90;;;;;;5346695;26;19941;-77
2024/04/09 10:32:55;;;;;;;;;;;18.20;99.90;;;;;;5355088;26;19936;-77
2024/04/09 10:35:22;;;;;;;;;;;18.30;99.90;;;;;;5350697;26;19936;-77
2024/04/09 10:37:48;;;;;;;;;;;18.30;99.90;;;;;;5330106;26;19929;-77
2024/04/09 10:40:13;;;;;;;;;;;18.30;99.90;;;;;;5343062;26;19942;-75
2024/04/09 10:42:39;;;;;;;;;;;18.30;99.90;;;;;;5362599;26;19996;-76
2024/04/09 10:45:06;;;;;;;;;;;18.30;99.90;;;;;;5321970;26;19929;-77
2024/04/09 10:47:32;;;;;;;;;;;18.40;99.90;;;;;;5366049;26;20349;-77
2024/04/09 10:49:57;;;;;;;;;;;18.30;99.90;;;;;;5408448;26;19990;-77
2024/04/09 10:52:23;;;;;;;;;;;18.30;99.90;;;;;;5385755;26;20257;-77
2024/04/09 10:54:49;;;;;;;;;;;18.30;99.90;;;;;;5346276;26;19936;-77
2024/04/09 10:57:14;;;;;;;;;;;18.30;99.90;;;;;;5384359;26;19941;-77
2024/04/09 10:59:40;;;;;;;;;;;18.30;99.90;;;;;;5413385;26;19960;-77
2024/04/09 11:02:09;;;;;;;;;;;18.30;99.90;;;;;;5348667;26;19937;-76
2024/04/09 11:04:34;;;;;;;;;;;18.30;99.90;;;;;;5352547;26;19957;-77
2024/04/09 11:07:00;;;;;;;;;;;18.20;99.90;;;;;;5395834;26;19929;-77
2024/04/09 11:09:26;;;;;;;;;;;18.20;99.90;;;;;;5383256;26;19941;-77
2024/04/09 11:11:52;;;;;;;;;;;18.20;99.90;;;;;;5333939;26;19936;-77
2024/04/09 11:14:17;;;;;;;;;;;18.30;99.90;;;;;;5414036;26;20345;-77
2024/04/09 11:16:47;;;;;;;;;;;18.50;99.90;;;;;;5351503;26;19995;-77
2024/04/09 11:19:18;;;;;;;;;;;18.60;99.90;;;;;;5382572;26;19929;-77
2024/04/09 11:21:44;;;;;;;;;;;18.70;99.90;;;;;;5328392;26;19929;-77
2024/04/09 11:24:09;;;;;;;;;;;18.70;99.90;;;;;;5393568;26;19957;-77
2024/04/09 11:26:35;;;;;;;;;;;18.80;99.90;;;;;;5393729;26;19929;-77
2024/04/09 11:29:02;;;;;;;;;;;18.90;99.90;;;;;;5352143;26;20256;-77
2024/04/09 11:31:29;;;;;;;;;;;18.80;99.90;;;;;;5352111;26;19976;-77
2024/04/09 11:33:55;;;;;;;;;;;18.70;99.90;;;;;;5354720;26;19941;-77
2024/04/09 11:36:22;;;;;;;;;;;18.70;99.90;;;;;;5327716;26;19933;-77
2024/04/09 11:38:49;;;;;;;;;;;18.80;99.90;;;;;;5371550;26;19935;-77
2024/04/09 11:41:14;;;;;;;;;;;18.90;99.90;;;;;;5386591;26;20244;-77
2024/04/09 11:43:41;;;;;;;;;;;18.80;99.90;;;;;;5386338;26;19929;-77
2024/04/09 11:46:08;;;;;;;;;;;19.00;99.90;;;;;;5358428;26;19933;-77
2024/04/09 11:48:34;;;;;;;;;;;19.00;99.90;;;;;;5416253;26;19929;-77
2024/04/09 11:51:01;;;;;;;;;;;19.10;99.90;;;;;;5343928;26;19929;-77
2024/04/09 11:53:28;;;;;;;;;;;19.10;99.90;;;;;;5381962;26;19929;-77
2024/04/09 11:55:56;;;;;;;;;;;19.10;99.90;;;;;;5387383;26;19929;-77
2024/04/09 11:58:21;;;;;;;;;;;19.10;99.90;;;;;;5358769;26;19929;-77
2024/04/09 12:00:47;;;;;;;;;;;19.00;99.90;;;;;;5381745;26;19945;-78
2024/04/09 12:03:12;;;;;;;;;;;18.90;99.90;;;;;;5380594;26;19940;-77
2024/04/09 12:05:38;;;;;;;;;;;18.90;99.90;;;;;;5376265;26;19929;-77
2024/04/09 12:08:06;;;;;;;;;;;19.00;99.90;;;;;;5418079;26;19936;-78
2024/04/09 12:10:31;;;;;;;;;;;19.00;99.90;;;;;;5341604;26;19995;-77
2024/04/09 12:12:57;;;;;;;;;;;19.00;99.90;;;;;;5395848;26;19968;-77
2024/04/09 12:15:23;;;;;;;;;;;18.90;99.90;;;;;;5358234;26;20337;-77
2024/04/09 12:17:49;;;;;;;;;;;18.80;99.90;;;;;;5387089;26;19929;-78
2024/04/09 12:20:14;;;;;;;;;;;18.70;99.90;;;;;;5377191;26;20390;-77
2024/04/09 12:22:41;;;;;;;;;;;18.60;99.90;;;;;;5363274;26;19965;-77
2024/04/09 12:25:08;;;;;;;;;;;18.40;99.90;;;;;;5360173;26;19929;-77
2024/04/09 12:27:33;;;;;;;;;;;18.00;99.90;;;;;;5357586;26;19975;-77
2024/04/09 12:30:01;;;;;;;;;;;17.40;99.90;;;;;;5357606;26;19937;-77
2024/04/09 12:32:27;;;;;;;;;;;17.00;99.90;;;;;;5385607;26;19929;-77
2024/04/09 12:34:53;;;;;;;;;;;16.80;99.90;;;;;;5326775;26;19937;-77
2024/04/09 12:37:18;;;;;;;;;;;16.50;99.90;;;;;;5352588;26;19941;-77
2024/04/09 12:39:44;;;;;;;;;;;16.50;99.90;;;;;;5378477;26;19994;-77
2024/04/09 12:42:09;;;;;;;;;;;16.40;99.90;;;;;;5332902;26;20249;-77
2024/04/09 12:44:35;;;;;;;;;;;16.20;99.90;;;;;;5357160;26;19930;-77
2024/04/09 12:47:02;;;;;;;;;;;16.00;99.90;;;;;;5351274;26;19995;-77
2024/04/09 12:49:28;;;;;;;;;;;16.00;99.90;;;;;;5351539;26;20353;-77
2024/04/09 12:51:54;;;;;;;;;;;15.90;99.90;;;;;;5361302;26;19937;-77
2024/04/09 12:54:19;;;;;;;;;;;15.80;99.90;;;;;;5344961;26;19961;-77
2024/04/09 12:56:45;;;;;;;;;;;15.80;99.90;;;;;;5384188;26;20589;-78
2024/04/09 12:59:11;;;;;;;;;;;15.60;99.90;;;;;;5357487;26;19933;-77
2024/04/09 13:01:36;;;;;;;;;;;15.70;99.90;;;;;;5354085;26;19939;-76
2024/04/09 13:04:02;;;;;;;;;;;15.60;99.90;;;;;;5343015;26;19929;-78
2024/04/09 13:06:28;;;;;;;;;;;15.40;99.90;;;;;;5383377;26;19929;-77
2024/04/09 13:08:54;;;;;;;;;;;15.40;99.90;;;;;;5353612;26;20291;-78
2024/04/09 13:11:20;;;;;;;;;;;15.20;99.90;;;;;;5361297;26;19929;-78
2024/04/09 13:13:45;;;;;;;;;;;15.20;99.90;;;;;;5386410;26;20003;-77
2024/04/09 13:16:13;;;;;;;;;;;15.10;99.90;;;;;;5352335;26;19929;-78
2024/04/09 13:18:40;;;;;;;;;;;15.00;99.90;;;;;;5368388;26;19936;-78
2024/04/09 13:21:06;;;;;;;;;;;14.90;99.90;;;;;;5377759;26;20309;-77
2024/04/09 13:23:31;;;;;;;;;;;14.80;99.90;;;;;;5321048;26;20344;-78
2024/04/09 13:25:59;;;;;;;;;;;14.70;99.90;;;;;;5382238;26;19929;-77
2024/04/09 13:28:24;;;;;;;;;;;14.50;99.90;;;;;;5384610;26;19936;-77
2024/04/09 13:30:50;;;;;;;;;;;14.40;99.90;;;;;;5355966;26;19929;-77
2024/04/09 13:33:16;;;;;;;;;;;14.40;99.90;;;;;;5355966;26;19940;-77
2024/04/09 13:35:41;;;;;;;;;;;14.40;99.90;;;;;;5355666;26;19929;-77
2024/04/09 13:38:07;;;;;;;;;;;14.40;99.90;;;;;;5379612;26;19929;-77
2024/04/09 13:40:33;;;;;;;;;;;14.30;99.90;;;;;;5346410;26;19937;-77
2024/04/09 13:42:58;;;;;;;;;;;14.20;99.90;;;;;;5324812;26;19940;-77
2024/04/09 13:45:24;;;;;;;;;;;14.10;99.90;;;;;;5384512;26;19940;-77
2024/04/09 13:47:49;;;;;;;;;;;14.10;99.90;;;;;;5384958;26;19929;-77
2024/04/09 13:50:19;;;;;;;;;;;14.10;99.90;;;;;;5435090;26;20248;-78
2024/04/09 13:52:45;;;;;;;;;;;14.20;99.90;;;;;;5355105;26;19936;-77
2024/04/09 13:55:11;;;;;;;;;;;14.10;99.90;;;;;;5391965;26;19996;-77
2024/04/09 13:57:36;;;;;;;;;;;14.10;99.90;;;;;;5355825;26;19941;-76
2024/04/09 14:00:07;;;;;;;;;;;14.00;99.90;;;;;;5404522;26;19930;-77
2024/04/09 14:02:33;;;;;;;;;;;14.00;99.90;;;;;;5356225;26;19941;-77
2024/04/09 14:04:59;;;;;;;;;;;14.10;99.90;;;;;;5363252;26;20631;-77
2024/04/09 14:07:24;;;;;;;;;;;14.00;99.90;;;;;;5379953;26;19929;-77
2024/04/09 14:09:50;;;;;;;;;;;14.10;99.90;;;;;;5354727;26;19928;-77
2024/04/09 14:12:16;;;;;;;;;;;14.00;99.90;;;;;;5350060;26;19930;-78
2024/04/09 14:14:41;;;;;;;;;;;13.90;99.90;;;;;;5385313;26;20361;-77
2024/04/09 14:17:08;;;;;;;;;;;13.80;99.90;;;;;;5384370;26;19929;-77